Time;durP1;ratioP1;P1;durP2;ratioP2;P2;SDS_P1;SDS_P2;PMS_P1;PMS_P2;Temp;Humidity;BMP_temperature;BMP_pressure;BME280_temperature;BME280_humidity;BME280_pressure;Samples;Min_cycle;Max_cycle;Signal;HPM_P1;HPM_P2
2021/10/31 00:00:17;;;;;;;22.80;16.47;;;11.50;90.80;;;;;;5055319;28;20214;-86
2021/10/31 00:02:43;;;;;;;23.03;15.67;;;11.60;90.90;;;;;;5073851;28;20170;-86
2021/10/31 00:05:09;;;;;;;23.17;16.97;;;11.60;90.70;;;;;;5055461;28;20606;-86
2021/10/31 00:07:35;;;;;;;22.23;15.33;;;11.60;90.80;;;;;;5055513;28;20206;-86
2021/10/31 00:10:04;;;;;;;20.77;14.23;;;11.60;90.80;;;;;;5055173;28;20604;-85
2021/10/31 00:12:29;;;;;;;19.50;15.47;;;11.60;90.80;;;;;;5058612;28;20531;-85
2021/10/31 00:14:55;;;;;;;21.00;15.30;;;11.60;90.80;;;;;;5059244;28;20317;-85
2021/10/31 00:17:21;;;;;;;23.17;16.00;;;11.60;90.70;;;;;;5059338;28;20179;-86
2021/10/31 00:19:47;;;;;;;20.93;13.70;;;11.60;90.70;;;;;;5059183;28;20202;-86
2021/10/31 00:22:13;;;;;;;24.13;17.20;;;11.60;90.70;;;;;;5077359;28;20304;-86
2021/10/31 00:24:39;;;;;;;23.53;17.07;;;11.60;90.90;;;;;;5076913;28;20198;-86
2021/10/31 00:27:05;;;;;;;22.57;15.93;;;11.60;91.00;;;;;;5077036;28;20171;-86
2021/10/31 00:29:31;;;;;;;25.53;16.37;;;11.60;90.90;;;;;;5059245;28;20209;-85
2021/10/31 00:31:57;;;;;;;23.47;16.73;;;11.60;91.10;;;;;;5077610;28;20193;-85
2021/10/31 00:34:22;;;;;;;23.77;17.80;;;11.60;91.00;;;;;;5058938;28;20206;-85
2021/10/31 00:36:48;;;;;;;25.43;17.73;;;11.60;91.20;;;;;;5058960;28;20179;-85
2021/10/31 00:39:14;;;;;;;23.57;17.07;;;11.60;91.20;;;;;;5076851;28;20666;-85
2021/10/31 00:41:40;;;;;;;24.13;17.37;;;11.70;91.30;;;;;;5059447;28;20184;-85
2021/10/31 00:44:05;;;;;;;30.07;21.30;;;11.70;91.30;;;;;;5058380;28;20275;-85
2021/10/31 00:46:31;;;;;;;28.53;20.00;;;11.60;91.40;;;;;;5076512;28;20210;-85
2021/10/31 00:48:57;;;;;;;23.87;17.53;;;11.60;91.50;;;;;;5076797;28;20548;-85
2021/10/31 00:51:26;;;;;;;25.17;20.30;;;11.60;91.40;;;;;;5076912;28;20183;-85
2021/10/31 00:53:57;;;;;;;28.30;19.40;;;11.60;91.50;;;;;;5076523;28;20230;-85
2021/10/31 00:56:23;;;;;;;26.60;19.67;;;11.60;91.70;;;;;;5076502;28;20163;-85
2021/10/31 00:58:49;;;;;;;26.73;19.73;;;11.60;91.60;;;;;;5076250;28;20187;-85
2021/10/31 01:01:15;;;;;;;29.17;21.37;;;11.50;91.60;;;;;;5058313;28;20172;-85
2021/10/31 01:03:41;;;;;;;27.37;22.13;;;11.50;91.60;;;;;;5075839;28;20217;-85
2021/10/31 01:06:25;;;;;;;28.20;19.90;;;11.50;91.50;;;;;;5076150;28;20184;-86
2021/10/31 01:09:09;;;;;;;27.07;20.07;;;11.50;91.50;;;;;;5058194;28;20175;-85
2021/10/31 01:11:54;;;;;;;32.07;21.37;;;11.40;91.60;;;;;;5075985;28;20624;-85
2021/10/31 01:14:39;;;;;;;26.67;20.13;;;11.30;91.60;;;;;;5057951;28;20245;-85
2021/10/31 01:17:15;;;;;;;23.80;17.63;;;11.40;91.60;;;;;;5057986;28;20220;-85
2021/10/31 01:20:05;;;;;;;27.23;19.67;;;11.40;91.60;;;;;;5057846;28;20247;-85
2021/10/31 01:22:45;;;;;;;24.43;17.83;;;11.40;91.50;;;;;;5057651;28;20182;-86
2021/10/31 01:25:11;;;;;;;28.90;20.93;;;11.40;91.60;;;;;;5075592;28;20245;-85
2021/10/31 01:28:14;;;;;;;28.77;21.50;;;11.40;91.60;;;;;;5057686;28;20175;-85
2021/10/31 01:30:54;;;;;;;30.47;22.33;;;11.30;91.60;;;;;;5065791;28;20551;-85
2021/10/31 01:33:36;;;;;;;29.87;19.80;;;11.30;91.60;;;;;;5075794;28;20741;-85
2021/10/31 01:36:10;;;;;;;29.27;20.87;;;11.20;91.60;;;;;;5076064;28;20555;-85
2021/10/31 01:39:07;;;;;;;29.03;21.87;;;11.10;91.70;;;;;;5075332;28;20713;-85
2021/10/31 01:42:16;;;;;;;30.80;21.33;;;11.10;91.90;;;;;;5034639;28;20219;-85
2021/10/31 01:44:50;;;;;;;31.63;20.20;;;11.10;91.90;;;;;;5076125;28;20191;-85
2021/10/31 01:47:40;;;;;;;29.67;20.10;;;11.10;92.00;;;;;;5075340;28;20238;-85
2021/10/31 01:50:18;;;;;;;30.27;21.10;;;11.10;92.10;;;;;;5057412;28;20229;-85
2021/10/31 01:52:51;;;;;;;28.30;21.70;;;11.00;92.20;;;;;;5057309;28;20236;-85
2021/10/31 01:55:26;;;;;;;30.00;21.80;;;11.10;92.20;;;;;;5075184;28;20611;-85
2021/10/31 01:57:56;;;;;;;32.20;23.47;;;11.00;92.10;;;;;;5075433;28;20163;-85
2021/10/31 02:00:22;;;;;;;30.93;22.90;;;11.00;92.10;;;;;;5075274;28;20191;-85
2021/10/31 02:02:48;;;;;;;34.87;24.73;;;10.90;92.30;;;;;;5056946;28;20221;-85
2021/10/31 02:05:19;;;;;;;32.33;23.67;;;11.00;92.50;;;;;;5056924;28;20214;-85
2021/10/31 02:07:54;;;;;;;31.47;22.83;;;11.10;92.50;;;;;;5056888;28;20167;-85
2021/10/31 02:10:22;;;;;;;31.93;24.60;;;11.20;92.40;;;;;;5056993;28;20262;-86
2021/10/31 02:12:50;;;;;;;36.17;24.07;;;11.20;92.30;;;;;;5074809;28;20180;-85
2021/10/31 02:15:16;;;;;;;33.40;24.13;;;11.20;92.30;;;;;;5056724;28;20667;-86
2021/10/31 02:17:51;;;;;;;32.13;25.00;;;11.20;92.40;;;;;;5074768;28;20601;-86
2021/10/31 02:20:17;;;;;;;32.77;25.07;;;11.20;92.40;;;;;;5074860;28;20191;-86
2021/10/31 02:23:00;;;;;;;47.47;23.47;;;11.20;92.40;;;;;;5074686;28;20199;-86
2021/10/31 02:25:26;;;;;;;34.87;24.47;;;11.20;92.50;;;;;;5056479;28;20171;-85
2021/10/31 02:27:53;;;;;;;32.57;25.20;;;11.20;92.60;;;;;;5056508;28;20172;-86
2021/10/31 02:30:19;;;;;;;36.30;26.20;;;11.30;92.40;;;;;;5074438;28;20229;-86
2021/10/31 02:32:45;;;;;;;32.67;23.60;;;11.30;92.40;;;;;;5074491;28;20175;-86
2021/10/31 02:35:12;;;;;;;30.37;22.93;;;11.30;92.50;;;;;;5073663;28;20195;-85
2021/10/31 02:37:39;;;;;;;31.13;23.87;;;11.40;92.50;;;;;;5056363;28;20658;-85
2021/10/31 02:40:07;;;;;;;32.37;24.73;;;11.40;92.40;;;;;;5056309;28;20223;-86
2021/10/31 02:42:33;;;;;;;31.27;23.50;;;11.50;92.40;;;;;;5074382;28;20250;-86
2021/10/31 02:44:59;;;;;;;31.90;21.20;;;11.50;92.20;;;;;;5056226;28;20196;-86
2021/10/31 02:47:37;;;;;;;29.63;23.77;;;11.50;92.10;;;;;;5074459;28;20168;-86
2021/10/31 02:50:04;;;;;;;36.20;24.50;;;11.50;92.00;;;;;;5056124;28;20183;-86
2021/10/31 02:52:44;;;;;;;33.23;23.90;;;11.50;92.20;;;;;;5074007;28;20525;-86
2021/10/31 02:55:22;;;;;;;35.03;24.90;;;11.50;92.30;;;;;;5056044;28;20199;-86
2021/10/31 02:58:17;;;;;;;34.53;23.27;;;11.50;92.30;;;;;;5055983;28;20635;-86
2021/10/31 03:00:43;;;;;;;39.43;25.57;;;11.50;92.40;;;;;;5074133;28;20666;-86
2021/10/31 03:03:11;;;;;;;36.33;23.87;;;11.50;92.40;;;;;;5055694;28;20180;-85
2021/10/31 03:05:36;;;;;;;30.27;24.50;;;11.50;92.40;;;;;;5055848;28;20181;-86
2021/10/31 03:08:02;;;;;;;32.60;24.97;;;11.50;92.40;;;;;;5073906;28;20171;-86
2021/10/31 03:10:28;;;;;;;35.80;25.93;;;11.50;92.40;;;;;;5055796;28;20179;-86
2021/10/31 03:12:54;;;;;;;42.33;25.87;;;11.40;92.40;;;;;;5073718;28;20224;-86
2021/10/31 03:15:20;;;;;;;33.73;25.33;;;11.40;92.50;;;;;;5055602;28;20573;-86
2021/10/31 03:17:46;;;;;;;42.80;27.77;;;11.30;92.60;;;;;;5055653;28;20175;-86
2021/10/31 03:20:12;;;;;;;40.53;27.07;;;11.20;92.80;;;;;;5055550;28;20203;-86
2021/10/31 03:22:39;;;;;;;38.60;26.03;;;11.30;92.80;;;;;;5073613;28;20171;-86
2021/10/31 03:25:05;;;;;;;38.80;27.20;;;11.30;92.80;;;;;;5055518;28;20678;-86
2021/10/31 03:27:31;;;;;;;35.17;28.77;;;11.20;92.80;;;;;;5055487;28;20180;-86
2021/10/31 03:29:57;;;;;;;40.23;28.80;;;11.30;92.90;;;;;;5073450;28;20190;-86
2021/10/31 03:32:22;;;;;;;40.17;29.97;;;11.20;92.80;;;;;;5055549;28;20262;-86
2021/10/31 03:34:48;;;;;;;37.87;28.70;;;11.30;92.90;;;;;;5055451;28;20202;-86
2021/10/31 03:37:14;;;;;;;37.23;27.03;;;11.20;92.80;;;;;;5055454;28;20182;-86
2021/10/31 03:39:40;;;;;;;42.67;30.77;;;11.20;93.00;;;;;;5055340;28;20206;-86
2021/10/31 03:42:06;;;;;;;40.77;30.03;;;11.10;93.00;;;;;;5055345;28;20179;-85
2021/10/31 03:44:36;;;;;;;41.67;30.40;;;11.00;93.10;;;;;;5055205;28;20199;-85
2021/10/31 03:47:03;;;;;;;46.30;29.73;;;10.90;93.10;;;;;;5073668;28;20166;-86
2021/10/31 03:49:29;;;;;;;44.63;31.50;;;10.90;93.20;;;;;;5055206;28;20202;-86
2021/10/31 03:51:55;;;;;;;45.07;33.43;;;10.70;93.20;;;;;;5073240;28;20639;-86
2021/10/31 03:54:21;;;;;;;47.07;33.10;;;10.70;93.40;;;;;;5073151;28;20249;-86
2021/10/31 03:56:46;;;;;;;49.67;34.43;;;10.60;93.50;;;;;;5073340;28;20175;-86
2021/10/31 03:59:12;;;;;;;48.73;35.40;;;10.70;93.70;;;;;;5073188;28;20659;-85
2021/10/31 04:01:37;;;;;;;51.73;35.87;;;10.60;93.70;;;;;;5055155;28;20179;-86
2021/10/31 04:04:03;;;;;;;53.73;38.67;;;10.70;93.90;;;;;;5072940;28;20214;-86
2021/10/31 04:06:29;;;;;;;50.93;35.93;;;10.70;93.90;;;;;;5055120;28;20191;-86
2021/10/31 04:08:55;;;;;;;53.37;35.83;;;10.80;94.00;;;;;;5055063;28;20183;-86
2021/10/31 04:11:21;;;;;;;57.83;37.07;;;10.90;93.90;;;;;;5055072;28;20183;-85
2021/10/31 04:13:46;;;;;;;54.57;38.23;;;10.90;93.80;;;;;;5054947;28;20678;-86
2021/10/31 04:16:12;;;;;;;56.13;39.83;;;10.90;93.80;;;;;;5055133;28;20262;-86
2021/10/31 04:18:38;;;;;;;54.83;38.60;;;10.90;93.80;;;;;;5073142;28;20202;-86
2021/10/31 04:21:03;;;;;;;55.00;38.27;;;10.90;93.80;;;;;;5072847;28;20685;-86
2021/10/31 04:23:30;;;;;;;62.80;39.23;;;10.90;93.80;;;;;;5072734;28;20202;-86
2021/10/31 04:25:56;;;;;;;57.87;39.60;;;10.70;93.80;;;;;;5055059;28;20187;-86
2021/10/31 04:28:23;;;;;;;58.30;39.20;;;10.70;93.80;;;;;;5054873;28;20179;-86
2021/10/31 04:30:50;;;;;;;58.77;40.60;;;10.60;93.90;;;;;;5054746;28;20182;-86
2021/10/31 04:33:16;;;;;;;61.13;38.30;;;10.60;93.90;;;;;;5072680;28;20540;-86
2021/10/31 04:35:42;;;;;;;60.70;40.87;;;10.60;94.00;;;;;;5072821;28;20193;-86
2021/10/31 04:38:12;;;;;;;65.57;42.90;;;10.60;94.00;;;;;;5054821;28;20699;-86
2021/10/31 04:40:40;;;;;;;58.20;40.30;;;10.60;94.10;;;;;;5072668;28;20183;-86
2021/10/31 04:43:10;;;;;;;64.07;39.87;;;10.50;94.00;;;;;;5072652;28;20179;-86
2021/10/31 04:45:40;;;;;;;63.07;41.60;;;10.40;94.10;;;;;;5054843;28;20266;-86
2021/10/31 04:48:07;;;;;;;63.77;41.40;;;10.40;94.20;;;;;;5072638;28;20209;-86
2021/10/31 04:50:33;;;;;;;60.83;39.87;;;10.50;94.20;;;;;;5054978;28;20593;-85
2021/10/31 04:52:59;;;;;;;58.87;39.67;;;10.50;94.20;;;;;;5072433;28;20305;-85
2021/10/31 04:55:25;;;;;;;65.63;41.67;;;10.50;94.20;;;;;;5072668;28;20180;-85
2021/10/31 04:57:50;;;;;;;64.27;41.03;;;10.40;94.20;;;;;;5056481;28;20184;-86
2021/10/31 05:00:16;;;;;;;70.93;43.63;;;10.40;94.20;;;;;;5076110;28;20191;-86
2021/10/31 05:02:42;;;;;;;60.03;41.83;;;10.30;94.20;;;;;;5058118;28;20178;-86
2021/10/31 05:05:08;;;;;;;64.53;39.13;;;10.30;94.20;;;;;;5057921;28;20701;-86
2021/10/31 05:07:34;;;;;;;64.07;41.17;;;10.30;94.20;;;;;;5057995;28;20571;-86
2021/10/31 05:09:59;;;;;;;63.07;40.20;;;10.40;94.20;;;;;;5058012;28;20197;-86
2021/10/31 05:12:25;;;;;;;62.07;40.27;;;10.30;94.20;;;;;;5057984;28;20179;-86
2021/10/31 05:14:52;;;;;;;59.20;41.27;;;10.30;94.20;;;;;;5075870;28;20264;-86
2021/10/31 05:17:18;;;;;;;62.70;42.33;;;10.30;94.20;;;;;;5057963;28;20183;-86
2021/10/31 05:19:43;;;;;;;67.57;41.50;;;10.20;94.10;;;;;;5057755;28;20646;-86
2021/10/31 05:22:09;;;;;;;63.63;43.20;;;10.20;94.20;;;;;;5076019;28;20203;-86
2021/10/31 05:24:35;;;;;;;63.17;42.10;;;10.20;94.10;;;;;;5057759;28;20651;-86
2021/10/31 05:27:00;;;;;;;59.93;40.77;;;10.10;94.10;;;;;;5076050;28;20636;-85
2021/10/31 05:29:26;;;;;;;60.80;40.67;;;10.00;94.10;;;;;;5057741;28;20179;-86
2021/10/31 05:31:52;;;;;;;66.63;41.77;;;10.00;94.10;;;;;;5057793;28;20229;-86
2021/10/31 05:34:17;;;;;;;71.30;44.33;;;10.10;94.20;;;;;;5057529;28;20206;-86
2021/10/31 05:36:43;;;;;;;65.83;42.03;;;10.10;94.10;;;;;;5057575;28;20241;-86
2021/10/31 05:39:08;;;;;;;65.23;41.83;;;10.10;94.20;;;;;;5057528;28;20674;-86
2021/10/31 05:41:34;;;;;;;60.47;41.37;;;10.00;94.10;;;;;;5057605;28;20624;-86
2021/10/31 05:44:00;;;;;;;57.70;39.27;;;10.00;94.10;;;;;;5057344;28;20198;-86
2021/10/31 05:46:28;;;;;;;61.00;40.83;;;9.90;94.10;;;;;;5075283;28;20630;-86
2021/10/31 05:48:53;;;;;;;65.83;40.43;;;9.90;94.10;;;;;;5075363;28;20191;-86
2021/10/31 05:51:19;;;;;;;56.27;38.50;;;9.80;94.10;;;;;;5057310;28;20184;-86
2021/10/31 05:53:45;;;;;;;50.07;36.57;;;9.80;94.10;;;;;;5075134;28;20187;-86
2021/10/31 05:56:11;;;;;;;46.47;35.63;;;9.80;94.00;;;;;;5057222;28;20202;-86
2021/10/31 05:58:38;;;;;;;47.53;33.07;;;9.80;94.00;;;;;;5075069;28;20179;-86
2021/10/31 06:01:03;;;;;;;43.80;34.40;;;9.80;93.90;;;;;;5075088;28;20252;-86
2021/10/31 06:03:29;;;;;;;43.40;33.40;;;9.80;93.90;;;;;;5056787;28;20663;-86
2021/10/31 06:05:55;;;;;;;39.77;32.47;;;9.80;93.80;;;;;;5057056;28;20631;-86
2021/10/31 06:08:21;;;;;;;43.03;32.53;;;9.80;93.80;;;;;;5056221;28;20636;-86
2021/10/31 06:10:47;;;;;;;43.73;33.47;;;9.70;93.70;;;;;;5074596;28;20543;-86
2021/10/31 06:13:14;;;;;;;37.97;30.90;;;9.60;93.70;;;;;;5074833;28;20179;-86
2021/10/31 06:15:41;;;;;;;41.50;32.27;;;9.60;93.60;;;;;;5056773;28;20187;-86
2021/10/31 06:18:07;;;;;;;45.57;32.27;;;9.60;93.60;;;;;;5056889;28;20233;-86
2021/10/31 06:20:33;;;;;;;36.00;28.77;;;9.60;93.60;;;;;;5074653;28;20268;-86
2021/10/31 06:22:59;;;;;;;32.93;27.40;;;9.70;93.60;;;;;;5074803;28;20614;-86
2021/10/31 06:25:25;;;;;;;33.93;27.73;;;9.50;93.50;;;;;;5074495;28;20183;-86
2021/10/31 06:27:50;;;;;;;35.20;29.40;;;9.50;93.40;;;;;;5074461;28;20174;-86
2021/10/31 06:30:16;;;;;;;36.60;29.47;;;9.50;93.40;;;;;;5074681;28;20229;-86
2021/10/31 06:32:42;;;;;;;40.23;29.97;;;9.50;93.40;;;;;;5074791;28;20174;-86
2021/10/31 06:35:08;;;;;;;34.97;29.50;;;9.50;93.40;;;;;;5056449;28;20195;-86
2021/10/31 06:37:34;;;;;;;39.80;29.03;;;9.60;93.40;;;;;;5056799;28;20757;-85
2021/10/31 06:39:59;;;;;;;31.03;26.57;;;9.50;93.40;;;;;;5056434;28;20230;-86
2021/10/31 06:42:28;;;;;;;35.00;27.43;;;9.50;93.30;;;;;;5056582;28;20175;-86
2021/10/31 06:44:54;;;;;;;34.90;28.67;;;9.50;93.30;;;;;;5056299;28;20207;-86
2021/10/31 06:47:21;;;;;;;34.87;28.87;;;9.50;93.30;;;;;;5074346;28;20220;-86
2021/10/31 06:49:46;;;;;;;37.00;29.73;;;9.40;93.30;;;;;;5074157;28;20179;-86
2021/10/31 06:52:12;;;;;;;40.77;30.10;;;9.50;93.40;;;;;;5073950;28;20174;-86
2021/10/31 06:54:38;;;;;;;38.33;31.80;;;9.40;93.40;;;;;;5055999;28;20198;-86
2021/10/31 06:57:03;;;;;;;36.33;30.00;;;9.50;93.50;;;;;;5055952;28;20206;-85
2021/10/31 06:59:32;;;;;;;38.33;30.43;;;9.50;93.50;;;;;;5073746;28;20663;-85
2021/10/31 07:01:58;;;;;;;40.97;31.57;;;9.60;93.50;;;;;;5055955;28;20175;-85
2021/10/31 07:04:24;;;;;;;42.30;33.17;;;9.60;93.50;;;;;;5055751;28;20211;-86
2021/10/31 07:06:50;;;;;;;40.40;31.00;;;9.60;93.60;;;;;;5055847;28;20192;-86
2021/10/31 07:09:15;;;;;;;38.90;31.30;;;9.70;93.70;;;;;;5055895;28;20179;-86
2021/10/31 07:11:41;;;;;;;41.33;31.80;;;9.70;93.70;;;;;;5055815;28;20183;-85
2021/10/31 07:14:07;;;;;;;46.90;32.53;;;9.70;93.80;;;;;;5055639;28;20210;-86
2021/10/31 07:16:33;;;;;;;45.93;31.53;;;9.70;94.00;;;;;;5073607;28;20187;-86
2021/10/31 07:18:58;;;;;;;50.60;33.57;;;9.70;94.10;;;;;;5055585;28;20179;-86
2021/10/31 07:21:24;;;;;;;53.47;35.50;;;9.70;94.10;;;;;;5055372;28;20207;-86
2021/10/31 07:23:50;;;;;;;54.00;34.77;;;9.80;94.20;;;;;;5073687;28;20187;-86
2021/10/31 07:26:15;;;;;;;50.67;34.67;;;9.80;94.20;;;;;;5055648;28;20182;-86
2021/10/31 07:28:41;;;;;;;47.27;34.10;;;9.80;94.20;;;;;;5055527;28;20549;-86
2021/10/31 07:31:08;;;;;;;46.70;32.37;;;9.80;94.30;;;;;;5073432;28;20635;-86
2021/10/31 07:33:34;;;;;;;43.37;33.67;;;9.80;94.20;;;;;;5055322;28;20684;-86
2021/10/31 07:36:00;;;;;;;45.27;32.67;;;9.80;94.20;;;;;;5055477;28;20211;-86
2021/10/31 07:38:27;;;;;;;43.30;31.30;;;9.80;94.20;;;;;;5055328;28;20301;-86
2021/10/31 07:40:53;;;;;;;49.47;32.63;;;9.80;94.20;;;;;;5073301;28;20283;-86
2021/10/31 07:43:18;;;;;;;45.83;32.50;;;9.90;94.20;;;;;;5073153;28;20639;-86
2021/10/31 07:45:44;;;;;;;43.27;32.23;;;9.80;94.20;;;;;;5055298;28;20171;-86
2021/10/31 07:48:10;;;;;;;40.97;31.10;;;9.90;94.20;;;;;;5055238;28;20179;-86
2021/10/31 07:50:37;;;;;;;49.87;32.63;;;9.90;94.20;;;;;;5073255;28;20232;-86
2021/10/31 07:53:09;;;;;;;48.47;33.53;;;9.90;94.20;;;;;;5073140;28;20176;-86
2021/10/31 07:55:37;;;;;;;48.20;32.80;;;9.90;94.20;;;;;;5055123;28;20707;-86
2021/10/31 07:58:04;;;;;;;53.27;32.63;;;10.00;94.30;;;;;;5055101;28;20224;-86
2021/10/31 08:00:31;;;;;;;45.77;33.77;;;10.00;94.20;;;;;;5073406;28;20203;-86
2021/10/31 08:02:57;;;;;;;51.17;33.80;;;10.10;94.30;;;;;;5054991;28;20205;-86
2021/10/31 08:05:24;;;;;;;55.27;36.37;;;10.20;94.30;;;;;;5073073;28;20644;-85
2021/10/31 08:07:50;;;;;;;56.63;35.73;;;10.30;94.40;;;;;;5055270;28;20179;-86
2021/10/31 08:10:16;;;;;;;52.27;36.60;;;10.30;94.40;;;;;;5055076;28;20179;-86
2021/10/31 08:12:42;;;;;;;54.00;35.03;;;10.40;94.40;;;;;;5073009;28;20176;-86
2021/10/31 08:15:08;;;;;;;57.50;35.17;;;10.40;94.30;;;;;;5055348;28;20199;-86
2021/10/31 08:17:34;;;;;;;52.53;34.80;;;10.50;94.30;;;;;;5055157;28;20233;-85
2021/10/31 08:20:00;;;;;;;54.47;37.03;;;10.50;94.30;;;;;;5072956;28;20590;-86
2021/10/31 08:22:26;;;;;;;53.50;34.40;;;10.50;94.30;;;;;;5055032;28;20171;-86
2021/10/31 08:24:52;;;;;;;54.03;37.20;;;10.60;94.30;;;;;;5055195;28;20249;-85
2021/10/31 08:27:18;;;;;;;51.60;35.50;;;10.60;94.30;;;;;;5073371;28;20175;-84
2021/10/31 08:29:45;;;;;;;52.10;33.87;;;10.70;94.30;;;;;;5072910;28;20179;-85
2021/10/31 08:32:12;;;;;;;56.43;36.60;;;10.80;94.20;;;;;;5074171;28;20178;-85
2021/10/31 08:34:38;;;;;;;50.43;34.90;;;10.90;94.10;;;;;;5058982;28;20195;-85
2021/10/31 08:37:03;;;;;;;51.70;33.77;;;10.90;94.00;;;;;;5058630;28;20247;-86
2021/10/31 08:39:29;;;;;;;54.17;35.47;;;11.00;93.90;;;;;;5076541;28;20206;-86
2021/10/31 08:41:56;;;;;;;50.07;34.07;;;11.00;93.80;;;;;;5076765;28;20183;-87
2021/10/31 08:44:22;;;;;;;47.17;33.93;;;11.10;93.80;;;;;;5058546;28;20206;-85
2021/10/31 08:46:48;;;;;;;48.17;33.03;;;11.20;93.60;;;;;;5059885;28;20175;-85
2021/10/31 08:49:16;;;;;;;45.07;33.87;;;11.20;93.50;;;;;;5058573;28;20262;-85
2021/10/31 08:51:42;;;;;;;44.87;32.07;;;11.20;93.20;;;;;;5058505;28;20229;-86
2021/10/31 08:54:07;;;;;;;42.50;32.50;;;11.20;93.20;;;;;;5076314;28;20558;-86
2021/10/31 08:56:33;;;;;;;45.20;31.37;;;11.30;93.00;;;;;;5076323;28;20175;-86
2021/10/31 08:58:59;;;;;;;49.70;32.47;;;11.40;93.00;;;;;;5058248;28;20180;-85
2021/10/31 09:01:27;;;;;;;41.43;30.73;;;11.50;92.60;;;;;;5058779;28;20171;-85
2021/10/31 09:03:53;;;;;;;45.13;31.83;;;11.50;92.50;;;;;;5058156;28;20675;-85
2021/10/31 09:06:26;;;;;;;40.77;29.83;;;11.50;92.30;;;;;;5076164;28;20258;-86
2021/10/31 09:08:52;;;;;;;39.93;31.53;;;11.60;92.30;;;;;;5076373;28;20167;-86
2021/10/31 09:11:18;;;;;;;40.33;30.00;;;11.60;92.20;;;;;;5058118;28;20229;-86
2021/10/31 09:13:44;;;;;;;45.77;30.93;;;11.70;92.20;;;;;;5057996;28;20191;-85
2021/10/31 09:16:09;;;;;;;37.53;28.90;;;11.70;92.10;;;;;;5057979;28;20171;-86
2021/10/31 09:18:36;;;;;;;36.93;27.87;;;11.80;91.90;;;;;;5075944;28;20167;-86
2021/10/31 09:21:03;;;;;;;36.57;28.07;;;11.80;91.60;;;;;;5075674;28;20203;-85
2021/10/31 09:23:28;;;;;;;36.03;26.57;;;11.80;91.40;;;;;;5057898;28;20198;-86
2021/10/31 09:25:54;;;;;;;36.03;28.40;;;11.90;91.50;;;;;;5076056;28;20167;-86
2021/10/31 09:28:20;;;;;;;34.60;23.83;;;12.00;91.50;;;;;;5075710;28;20168;-86
2021/10/31 09:30:46;;;;;;;38.17;26.87;;;12.20;91.20;;;;;;5076043;28;20182;-85
2021/10/31 09:33:12;;;;;;;33.03;24.87;;;12.20;90.90;;;;;;5057624;28;20175;-86
2021/10/31 09:35:58;;;;;;;36.10;26.47;;;12.20;90.60;;;;;;5075715;28;20171;-86
2021/10/31 09:38:26;;;;;;;30.77;26.93;;;12.20;90.30;;;;;;5058185;28;20213;-86
2021/10/31 09:40:54;;;;;;;36.23;24.73;;;12.50;90.60;;;;;;5057920;28;20252;-86
2021/10/31 09:43:23;;;;;;;34.73;26.67;;;12.60;90.20;;;;;;5057633;28;20240;-85
2021/10/31 09:45:49;;;;;;;29.60;25.60;;;12.60;89.80;;;;;;5075467;28;20643;-86
2021/10/31 09:48:16;;;;;;;30.83;25.07;;;12.70;89.90;;;;;;5075710;28;20221;-86
2021/10/31 09:50:48;;;;;;;32.73;25.57;;;12.70;89.30;;;;;;5075596;28;20171;-85
2021/10/31 09:53:17;;;;;;;32.57;23.10;;;12.80;89.20;;;;;;5075836;28;20156;-85
2021/10/31 09:55:44;;;;;;;28.47;23.17;;;12.80;89.10;;;;;;5075403;28;20296;-85
2021/10/31 09:58:19;;;;;;;32.00;24.20;;;12.80;88.60;;;;;;5057867;28;20269;-86
2021/10/31 10:00:48;;;;;;;31.60;23.37;;;12.80;88.60;;;;;;5057471;28;20206;-86
2021/10/31 10:05:44;;;;;;;32.07;22.83;;;12.80;88.40;;;;;;5114533;22;20231;-86
2021/10/31 10:08:11;;;;;;;26.67;21.70;;;12.90;88.30;;;;;;5055059;28;20221;-88
2021/10/31 10:10:53;;;;;;;29.47;22.50;;;12.90;88.10;;;;;;5054706;28;20620;-87
2021/10/31 10:13:27;;;;;;;28.37;22.77;;;12.90;88.10;;;;;;5054385;28;20660;-87
2021/10/31 10:16:24;;;;;;;26.13;22.23;;;12.90;88.10;;;;;;5017011;28;20173;-87
2021/10/31 10:18:50;;;;;;;28.33;22.53;;;12.80;88.20;;;;;;5034808;28;20561;-87
2021/10/31 10:21:31;;;;;;;28.77;22.47;;;13.00;88.50;;;;;;5016690;28;20268;-87
2021/10/31 10:24:06;;;;;;;24.43;19.50;;;13.10;87.70;;;;;;5016792;28;20218;-87
2021/10/31 10:26:34;;;;;;;24.57;21.87;;;13.00;87.30;;;;;;5016684;28;20538;-86
2021/10/31 10:29:20;;;;;;;28.77;23.17;;;13.00;87.70;;;;;;5034370;28;20175;-87
2021/10/31 10:31:50;;;;;;;30.60;24.10;;;13.00;87.50;;;;;;5016665;28;20165;-86
2021/10/31 10:34:28;;;;;;;27.87;23.40;;;13.20;87.70;;;;;;5034401;28;20193;-86
2021/10/31 10:36:57;;;;;;;28.20;20.83;;;13.20;87.10;;;;;;5034078;28;20176;-86
2021/10/31 10:39:23;;;;;;;25.27;20.30;;;13.50;87.20;;;;;;5032718;28;20247;-86
2021/10/31 10:41:54;;;;;;;25.73;19.00;;;13.50;86.80;;;;;;5016331;28;20173;-85
2021/10/31 10:44:27;;;;;;;23.10;19.40;;;13.60;85.70;;;;;;5016416;28;20676;-85
2021/10/31 10:46:59;;;;;;;27.03;18.53;;;13.70;86.20;;;;;;5016297;28;20167;-86
2021/10/31 10:49:27;;;;;;;26.27;19.27;;;13.80;85.20;;;;;;5034014;28;20164;-87
2021/10/31 10:52:07;;;;;;;26.10;18.33;;;13.80;86.00;;;;;;5016271;28;20263;-86
2021/10/31 10:54:34;;;;;;;23.47;16.77;;;13.90;85.90;;;;;;5015574;28;20227;-85
2021/10/31 10:57:03;;;;;;;20.10;16.17;;;13.90;85.00;;;;;;5033766;28;20173;-85
2021/10/31 10:59:29;;;;;;;23.77;14.53;;;14.00;84.10;;;;;;5033688;28;20677;-86
2021/10/31 11:02:16;;;;;;;21.37;14.80;;;13.90;83.70;;;;;;5016033;28;20172;-87
2021/10/31 11:04:45;;;;;;;16.43;14.13;;;13.90;84.10;;;;;;5015923;28;20714;-86
2021/10/31 11:07:13;;;;;;;19.80;13.33;;;14.00;84.70;;;;;;5034067;28;20180;-87
2021/10/31 11:09:45;;;;;;;20.63;14.13;;;14.10;83.40;;;;;;5033789;28;20168;-87
2021/10/31 11:12:21;;;;;;;15.03;11.00;;;14.10;83.40;;;;;;5015922;28;20557;-87
2021/10/31 11:14:49;;;;;;;16.83;10.87;;;14.10;82.60;;;;;;5033591;28;20790;-88
2021/10/31 11:17:20;;;;;;;14.33;10.83;;;14.10;82.70;;;;;;5033619;28;20181;-87
2021/10/31 11:19:47;;;;;;;14.80;10.80;;;14.20;82.40;;;;;;5015719;28;20189;-87
2021/10/31 11:22:14;;;;;;;11.70;9.43;;;14.20;82.80;;;;;;5015881;28;20172;-87
2021/10/31 11:24:41;;;;;;;14.10;8.63;;;14.30;82.40;;;;;;5015863;28;20192;-87
2021/10/31 11:27:11;;;;;;;14.27;8.20;;;14.30;81.50;;;;;;5033456;28;20197;-87
2021/10/31 11:29:37;;;;;;;10.73;7.97;;;14.40;82.20;;;;;;5016069;28;20234;-87
2021/10/31 11:32:03;;;;;;;14.00;7.13;;;14.50;81.80;;;;;;5015764;28;20184;-87
2021/10/31 11:34:30;;;;;;;11.63;7.03;;;14.70;80.70;;;;;;5015542;28;20192;-87
2021/10/31 11:36:57;;;;;;;12.50;6.33;;;14.80;81.20;;;;;;5015870;28;20695;-87
2021/10/31 11:39:24;;;;;;;15.33;6.47;;;14.90;79.50;;;;;;5033673;28;20330;-86
2021/10/31 11:41:50;;;;;;;9.30;6.03;;;14.90;79.40;;;;;;5015526;28;20173;-86
2021/10/31 11:44:16;;;;;;;9.23;5.77;;;14.90;78.90;;;;;;5033138;28;20181;-86
2021/10/31 11:46:43;;;;;;;12.03;5.60;;;14.80;79.20;;;;;;5015476;28;20271;-86
2021/10/31 11:49:10;;;;;;;12.13;5.80;;;14.90;79.60;;;;;;5015384;28;20550;-86
2021/10/31 11:51:39;;;;;;;12.97;5.77;;;15.00;79.10;;;;;;5033143;28;20164;-86
2021/10/31 11:54:11;;;;;;;10.07;5.30;;;15.00;79.20;;;;;;5015691;28;20192;-86
2021/10/31 11:56:42;;;;;;;11.15;5.18;;;15.00;78.80;;;;;;5015518;28;20176;-86
2021/10/31 11:59:16;;;;;;;8.90;4.78;;;14.90;77.90;;;;;;5015506;28;20268;-86
2021/10/31 12:01:48;;;;;;;7.30;4.97;;;15.00;78.40;;;;;;5015426;28;20255;-86
2021/10/31 12:04:26;;;;;;;10.60;5.70;;;15.20;78.50;;;;;;5015286;28;20575;-86
2021/10/31 12:06:51;;;;;;;7.63;4.85;;;15.20;78.00;;;;;;5034126;28;20157;-85
2021/10/31 12:09:25;;;;;;;12.45;5.25;;;15.10;77.90;;;;;;5037090;28;20172;-87
2021/10/31 12:11:54;;;;;;;12.05;5.75;;;15.00;78.40;;;;;;5019701;28;20251;-87
2021/10/31 12:14:53;;;;;;;7.72;5.10;;;15.20;78.10;;;;;;5019346;28;20566;-86
2021/10/31 12:17:20;;;;;;;11.15;5.63;;;15.20;77.60;;;;;;5032346;28;20189;-87
2021/10/31 12:19:50;;;;;;;7.53;5.57;;;15.30;78.00;;;;;;5037153;28;20193;-87
2021/10/31 12:22:30;;;;;;;7.88;5.72;;;15.30;78.30;;;;;;5019350;28;20670;-87
2021/10/31 12:25:03;;;;;;;7.97;5.43;;;15.50;77.10;;;;;;5036886;28;20184;-87
2021/10/31 12:27:41;;;;;;;6.97;5.47;;;15.50;77.30;;;;;;5037142;28;20171;-87
2021/10/31 12:30:28;;;;;;;7.22;4.70;;;15.70;77.60;;;;;;5036984;28;20177;-87
2021/10/31 12:33:03;;;;;;;7.55;4.60;;;15.70;75.20;;;;;;5018833;28;20537;-87
2021/10/31 12:35:37;;;;;;;6.25;4.40;;;15.80;76.80;;;;;;5019007;28;20196;-88
2021/10/31 12:38:23;;;;;;;7.30;4.30;;;15.70;75.80;;;;;;5019512;28;20173;-86
2021/10/31 12:41:05;;;;;;;13.48;4.50;;;15.40;76.40;;;;;;5020230;28;20549;-87